Walker Valley, New York
Current Conditions -  °F | °C
As of 1:22 AM on Thursday 25 Dec 2014 (Local Time) from KMGJ Reporting Station
Light Rain Light Rain  
Wind Chill: 48°   Ceiling: 1800
Heat Index: 48°   Visibility: 2mi
Dew Point: 47°   Wind: 0mph
Humidity: 96%   Direction: NA
Pressure: 29.46"   Gusts: NA
Location:  41.63°N, 74.38°W
Report Text: KMGJ 250622Z AUTO 00000KT 2SM -RA BR SCT002 SCT006 OVC018 09/08 A2946 RMK AO2 RAB22 P0000 T00890083 TSNO
Loading
Personal Weather Stations






























Interactive Weather Map New forecast layout! Learn more

10-Day Weather Forecast

Advertisements
Track Severe Weather on mobile